Wye Mills, MD

3:33 AM EST on December 10, 2016 (GMT -0500)
Governor Grason II/III | | Change Station

Elev 13 ft 38.95 °N, 76.17 °W | Updated 3 seconds ago

Clear
Clear
30.2 °F
Feels Like 25 °F
N
4.9
Wind Variable Wind from WNW
Gusts 4.9 mph

Today
High -- | Low -- °F
--% Chance of Precip.
Yesterday
High -- | Low -- °F
Precip. -- in
Pressure 30.47 in
Visibility 10.0 miles
Clouds Clear
Windchill 25 °F
Dew Point 0 °F
Humidity 27%
Rainfall 0.00 in
Snow Depth Not available.
7:12 AM 4:42 PM
Waxing Gibbous, 81% visible
METAR KESN 100815Z AUTO 32010G16KT 10SM CLR 00/M08 A3047 RMK AO2 T00001079
Pressure 30.47 in
Visibility 10.0 miles
Clouds Clear
Windchill 25 °F
Dew Point 0 °F
Humidity 27%
Rainfall 0.00 in
Snow Depth Not available.
7:12 AM 4:42 PM
Waxing Gibbous, 81% visible
METAR KESN 100815Z AUTO 32010G16KT 10SM CLR 00/M08 A3047 RMK AO2 T00001079

10-Day Weather Forecast

Almanac

Astronomy

Dec. 10, 2016 Rise Set
Actual Time
Civil Twilight
Nautical Twilight
Astronomical Twilight
Moon
Length of Visible Light
Length of Day
Tomorrow will be .
, % of the Moon is Illuminated

Today's Extremes

State Highs State Lows

Community

WunderPhotos

Upload Photos

1,956,538 photos uploaded!

WunderBlog® & News

Nearby

Air Quality

  Air Quality AQ Index Pollutant
Not available.

Snow Depth

Station Depth Elevation

Earthquake Activity

City Distance Mag. Time & Date
Minimum magnitude displayed is 2.5.

Coastal Water Temperatures

Place Temperature

Stations

Nearby Weather Stations

Station Location Temp. Windchill Dew Point Humidity Wind Precip. Elev Updated Type
                   

Watches & Warnings

There are currently no watches in effect.